createdAt,value
2018-06-04T00:02:27.601Z,101413.72
2018-06-04T00:05:31.994Z,101414.25
2018-06-04T00:08:36.377Z,101409.77
2018-06-04T00:11:40.817Z,101413.50
2018-06-04T00:14:45.219Z,101412.04
2018-06-04T00:17:49.622Z,101414.28
2018-06-04T00:20:54.068Z,101406.88
2018-06-04T00:23:58.460Z,101406.06
2018-06-04T00:27:03.729Z,101406.13
2018-06-04T00:30:08.109Z,101396.12
2018-06-04T00:33:12.522Z,101400.47
2018-06-04T00:36:16.898Z,101400.13
2018-06-04T00:39:21.307Z,101397.02
2018-06-04T00:42:25.707Z,101389.56
2018-06-04T00:45:30.092Z,101393.42
2018-06-04T00:48:34.502Z,101392.28
2018-06-04T00:51:38.918Z,101393.37
2018-06-04T00:54:43.290Z,101387.62
2018-06-04T00:57:47.685Z,101383.17
2018-06-04T01:00:52.062Z,101382.33
2018-06-04T01:03:56.503Z,101379.59
2018-06-04T01:07:00.913Z,101379.30
2018-06-04T01:10:05.385Z,101379.02
2018-06-04T01:13:09.792Z,101378.21
2018-06-04T01:16:14.196Z,101377.45
2018-06-04T01:19:18.571Z,101384.52
2018-06-04T01:22:22.975Z,101379.78
2018-06-04T01:25:27.365Z,101379.37
2018-06-04T01:28:31.749Z,101371.36
2018-06-04T01:31:36.125Z,101381.20
2018-06-04T01:34:40.549Z,101370.16
2018-06-04T01:37:44.936Z,101374.86
2018-06-04T01:40:49.341Z,101369.97
2018-06-04T01:43:53.726Z,101367.75
2018-06-04T01:46:58.146Z,101366.09
2018-06-04T01:50:02.537Z,101365.01
2018-06-04T01:53:06.934Z,101363.55
2018-06-04T01:56:11.317Z,101367.12
2018-06-04T01:59:15.725Z,101353.19
2018-06-04T02:02:20.105Z,101358.39
2018-06-04T02:05:24.550Z,101351.42
2018-06-04T02:08:28.934Z,101352.73
2018-06-04T02:11:33.337Z,101352.17
2018-06-04T02:14:37.733Z,101354.81
2018-06-04T02:17:42.156Z,101345.80
2018-06-04T02:20:46.533Z,101347.11
2018-06-04T02:23:50.946Z,101344.96
2018-06-04T02:26:55.339Z,101344.75
2018-06-04T02:29:59.730Z,101337.63
2018-06-04T02:33:04.179Z,101334.11
2018-06-04T02:36:08.564Z,101330.78
2018-06-04T02:39:13.003Z,101332.73
2018-06-04T02:42:17.407Z,101333.52
2018-06-04T02:45:21.841Z,101324.48
2018-06-04T02:48:26.249Z,101317.12
2018-06-04T02:51:30.657Z,101323.75
2018-06-04T02:54:35.053Z,101327.36
2018-06-04T02:57:39.429Z,101315.27
2018-06-04T03:00:43.819Z,101314.98
2018-06-04T03:03:48.215Z,101311.06
2018-06-04T03:06:52.592Z,101308.32
2018-06-04T03:09:57.023Z,101303.67
2018-06-04T03:13:01.410Z,101302.30
2018-06-04T03:16:05.923Z,101297.29
2018-06-04T03:19:10.317Z,101298.60
2018-06-04T03:22:14.680Z,101301.94
2018-06-04T03:25:19.073Z,101296.11
2018-06-04T03:28:23.477Z,101303.56
2018-06-04T03:31:27.902Z,101294.92
2018-06-04T03:34:32.293Z,101300.33
2018-06-04T03:37:36.681Z,101294.56
2018-06-04T03:40:41.093Z,101302.81
2018-06-04T03:43:45.791Z,101296.99
2018-06-04T03:46:50.294Z,101298.92
2018-06-04T03:49:54.720Z,101300.36
2018-06-04T03:52:59.165Z,101302.29
2018-06-04T03:56:03.557Z,101303.47
2018-06-04T03:59:08.007Z,101293.50
2018-06-04T04:02:12.933Z,101300.08
2018-06-04T04:05:17.339Z,101294.00
2018-06-04T04:08:21.783Z,101290.47
2018-06-04T04:11:26.171Z,101292.62
2018-06-04T04:14:30.578Z,101285.83
2018-06-04T04:17:34.979Z,101288.57
2018-06-04T04:20:39.390Z,101289.56
2018-06-04T04:23:43.775Z,101283.32
2018-06-04T04:26:48.183Z,101283.34
2018-06-04T04:29:52.575Z,101280.88
2018-06-04T04:32:56.957Z,101278.89
2018-06-04T04:36:01.370Z,101276.46
2018-06-04T04:39:09.195Z,101273.74
2018-06-04T04:42:13.591Z,101275.64
2018-06-04T04:45:18.113Z,101269.09
2018-06-04T04:48:22.578Z,101270.13
2018-06-04T04:51:26.962Z,101270.72
2018-06-04T04:54:31.441Z,101254.56
2018-06-04T04:57:35.803Z,101259.80
2018-06-04T05:00:40.246Z,101259.52
2018-06-04T05:03:44.658Z,101258.06
2018-06-04T05:06:49.054Z,101257.30
2018-06-04T05:09:53.489Z,101261.17
2018-06-04T05:12:57.903Z,101253.02
2018-06-04T05:16:02.330Z,101254.11
2018-06-04T05:19:06.750Z,101253.02
2018-06-04T05:22:11.203Z,101256.07
2018-06-04T05:25:15.614Z,101255.77
2018-06-04T05:28:20.034Z,101250.84
2018-06-04T05:31:24.432Z,101255.15
2018-06-04T05:34:28.881Z,101259.24
2018-06-04T05:37:33.291Z,101257.95
2018-06-04T05:40:37.709Z,101256.58
2018-06-04T05:43:42.123Z,101255.20
2018-06-04T05:46:46.522Z,101260.39
2018-06-04T05:49:50.958Z,101256.02
2018-06-04T05:52:55.373Z,101249.12
2018-06-04T05:55:59.766Z,101249.38
2018-06-04T05:59:04.219Z,101248.39
2018-06-04T06:02:08.689Z,101248.70
2018-06-04T06:05:13.108Z,101251.73
2018-06-04T06:08:17.517Z,101248.45
2018-06-04T06:11:22.193Z,101251.20
2018-06-04T06:14:26.640Z,101249.01
2018-06-04T06:17:31.059Z,101248.12
2018-06-04T06:20:35.473Z,101238.61
2018-06-04T06:23:39.922Z,101235.28
2018-06-04T06:26:44.366Z,101238.69
2018-06-04T06:29:49.041Z,101241.72
2018-06-04T06:32:53.477Z,101239.81
2018-06-04T06:35:57.891Z,101229.95
2018-06-04T06:39:02.326Z,101230.53
2018-06-04T06:42:06.733Z,101230.53
2018-06-04T06:45:11.173Z,101225.93
2018-06-04T06:48:15.582Z,101224.58
2018-06-04T06:51:20.050Z,101229.61
2018-06-04T06:54:24.450Z,101224.63
2018-06-04T06:57:28.869Z,101225.73
2018-06-04T07:00:33.241Z,101229.35
2018-06-04T07:03:37.650Z,101232.98
2018-06-04T07:06:42.054Z,101229.52
2018-06-04T07:09:46.509Z,101232.27
2018-06-04T07:12:50.889Z,101232.52
2018-06-04T07:15:55.328Z,101243.83
2018-06-04T07:18:59.726Z,101240.59
2018-06-04T07:22:04.179Z,101235.94
2018-06-04T07:25:08.554Z,101242.80
2018-06-04T07:28:13.006Z,101233.14
2018-06-04T07:31:17.401Z,101222.75
2018-06-04T07:34:21.814Z,101229.39
2018-06-04T07:37:26.226Z,101238.00
2018-06-04T07:40:30.661Z,101233.29
2018-06-04T07:43:35.128Z,101228.70
2018-06-04T07:46:39.549Z,101229.93
2018-06-04T07:49:43.954Z,101240.48
2018-06-04T07:52:48.353Z,101242.30
2018-06-04T07:55:52.758Z,101235.23
2018-06-04T07:58:57.154Z,101235.88
2018-06-04T08:02:01.590Z,101232.41
2018-06-04T08:05:06.244Z,101232.52
2018-06-04T08:08:10.653Z,101225.12
2018-06-04T08:11:15.067Z,101233.11
2018-06-04T08:14:19.489Z,101230.41
2018-06-04T08:17:23.877Z,101228.29
2018-06-04T08:20:28.284Z,101225.12
2018-06-04T08:23:32.685Z,101226.81
2018-06-04T08:26:37.102Z,101227.47
2018-06-04T08:29:41.486Z,101233.02
2018-06-04T08:32:45.918Z,101234.69
2018-06-04T08:35:50.306Z,101229.52
2018-06-04T08:38:54.717Z,101228.92
2018-06-04T08:41:59.124Z,101235.30
2018-06-04T08:45:03.564Z,101230.93
2018-06-04T08:48:07.955Z,101231.47
2018-06-04T08:51:12.387Z,101233.12
2018-06-04T08:54:16.810Z,101229.85
2018-06-04T08:57:20.966Z,101228.23
2018-06-04T09:00:25.366Z,101231.02
2018-06-04T09:03:29.778Z,101227.17
2018-06-04T09:06:34.169Z,101227.50
2018-06-04T09:09:38.593Z,101223.09
2018-06-04T09:12:43.001Z,101222.28
2018-06-04T09:15:47.463Z,101222.03
2018-06-04T09:18:51.877Z,101216.78
2018-06-04T09:21:56.291Z,101214.34
2018-06-04T09:25:00.706Z,101214.89
2018-06-04T09:28:05.481Z,101222.11
2018-06-04T09:31:09.951Z,101216.87
2018-06-04T09:34:14.368Z,101223.78
2018-06-04T09:37:18.764Z,101215.20
2018-06-04T09:40:23.165Z,101218.81
2018-06-04T09:43:27.573Z,101223.49
2018-06-04T09:46:32.019Z,101222.97
2018-06-04T09:49:36.426Z,101217.47
2018-06-04T09:52:40.866Z,101213.88
2018-06-04T09:55:45.269Z,101219.13
2018-06-04T09:58:49.694Z,101218.28
2018-06-04T10:01:54.093Z,101215.52
2018-06-04T10:04:58.520Z,101211.95
2018-06-04T10:08:02.966Z,101206.14
2018-06-04T10:11:07.394Z,101209.98
2018-06-04T10:14:11.837Z,101202.28
2018-06-04T10:17:16.235Z,101206.97
2018-06-04T10:20:20.729Z,101202.53
2018-06-04T10:23:25.137Z,101198.95
2018-06-04T10:26:29.546Z,101200.33
2018-06-04T10:29:38.260Z,101193.95
2018-06-04T10:32:42.921Z,101195.34
2018-06-04T10:35:47.345Z,101195.59
2018-06-04T10:38:56.054Z,101195.23
2018-06-04T10:42:02.434Z,101194.67
2018-06-04T10:45:07.076Z,101189.16
2018-06-04T10:48:12.531Z,101189.47
2018-06-04T10:51:17.038Z,101185.05
2018-06-04T10:54:22.345Z,101188.59
2018-06-04T10:57:26.937Z,101186.65
2018-06-04T11:00:31.473Z,101186.94
2018-06-04T11:03:42.108Z,101198.84
2018-06-04T11:06:51.398Z,101189.70
2018-06-04T11:09:56.015Z,101189.14
2018-06-04T11:13:00.527Z,101188.03
2018-06-04T11:16:05.089Z,101193.27
2018-06-04T11:19:09.676Z,101188.81
2018-06-04T11:22:14.111Z,101191.84
2018-06-04T11:25:18.610Z,101191.89
2018-06-04T11:28:22.997Z,101189.66
2018-06-04T11:31:28.438Z,101195.19
2018-06-04T11:34:32.828Z,101194.94
2018-06-04T11:37:37.253Z,101191.38
2018-06-04T11:40:41.752Z,101183.96
2018-06-04T11:43:47.661Z,101182.83
2018-06-04T11:46:52.210Z,101184.17
2018-06-04T11:49:56.673Z,101184.18
2018-06-04T11:53:01.154Z,101182.23
2018-06-04T11:56:05.864Z,101175.06
2018-06-04T11:59:10.845Z,101173.06
2018-06-04T12:02:15.535Z,101170.00
2018-06-04T12:05:20.011Z,101161.70
2018-06-04T12:08:24.534Z,101169.66
2018-06-04T12:11:29.738Z,101173.02
2018-06-04T12:14:34.358Z,101176.09
2018-06-04T12:17:38.974Z,101172.80
2018-06-04T12:20:43.490Z,101173.11
2018-06-04T12:23:47.999Z,101166.68
2018-06-04T12:26:52.465Z,101174.57
2018-06-04T12:29:56.896Z,101171.28
2018-06-04T12:33:01.362Z,101164.99
2018-06-04T12:36:06.344Z,101169.17
2018-06-04T12:39:10.832Z,101173.06
2018-06-04T12:42:15.324Z,101170.58
2018-06-04T12:45:20.318Z,101169.22
2018-06-04T12:48:24.830Z,101168.95
2018-06-04T12:51:29.345Z,101173.13
2018-06-04T12:54:33.872Z,101175.95
2018-06-04T12:57:38.363Z,101172.12
2018-06-04T13:00:42.840Z,101165.51
2018-06-04T13:03:47.566Z,101165.52
2018-06-04T13:06:52.314Z,101164.98
2018-06-04T13:09:56.849Z,101161.38
2018-06-04T13:13:01.263Z,101160.81
2018-06-04T13:16:05.833Z,101159.95
2018-06-04T13:19:10.306Z,101150.83
2018-06-04T13:22:14.795Z,101151.87
2018-06-04T13:25:19.188Z,101149.95
2018-06-04T13:28:23.597Z,101156.63
2018-06-04T13:31:28.017Z,101150.59
2018-06-04T13:34:33.570Z,101149.80
2018-06-04T13:37:39.197Z,101151.18
2018-06-04T13:40:43.617Z,101158.05
2018-06-04T13:43:48.217Z,101142.33
2018-06-04T13:47:04.667Z,101145.11
2018-06-04T13:50:09.237Z,101141.22
2018-06-04T13:53:20.091Z,101145.89
2018-06-04T13:56:25.277Z,101141.48
2018-06-04T13:59:29.972Z,101140.61
2018-06-04T14:02:35.325Z,101143.84
2018-06-04T14:05:39.770Z,101136.87
2018-06-04T14:08:44.177Z,101129.63
2018-06-04T14:11:48.583Z,101130.06
2018-06-04T14:14:53.009Z,101133.06
2018-06-04T14:17:57.453Z,101135.37
2018-06-04T14:21:01.860Z,101138.15
2018-06-04T14:24:06.264Z,101134.70
2018-06-04T14:27:10.660Z,101134.16
2018-06-04T14:30:15.063Z,101136.11
2018-06-04T14:33:19.478Z,101138.13
2018-06-04T14:36:23.890Z,101142.02
2018-06-04T14:39:28.295Z,101135.98
2018-06-04T14:42:32.666Z,101142.36
2018-06-04T14:45:37.064Z,101143.73
2018-06-04T14:48:41.477Z,101141.55
2018-06-04T14:51:45.876Z,101140.17
2018-06-04T14:54:50.276Z,101128.87
2018-06-04T14:57:54.678Z,101126.38
2018-06-04T15:00:59.091Z,101129.97
2018-06-04T15:04:03.548Z,101131.89
2018-06-04T15:07:08.171Z,101118.39
2018-06-04T15:10:12.597Z,101117.28
2018-06-04T15:13:17.022Z,101119.22
2018-06-04T15:16:21.458Z,101126.67
2018-06-04T15:19:25.911Z,101117.56
2018-06-04T15:22:30.366Z,101108.45
2018-06-04T15:25:34.799Z,101111.20
2018-06-04T15:28:39.205Z,101109.82
2018-06-04T15:31:43.623Z,101104.58
2018-06-04T15:34:48.660Z,101107.62
2018-06-04T15:37:53.519Z,101110.39
2018-06-04T15:40:57.898Z,101099.62
2018-06-04T15:44:03.288Z,101103.20
2018-06-04T15:47:07.798Z,101099.62
2018-06-04T15:50:12.215Z,101096.86
2018-06-04T15:53:17.040Z,101091.64
2018-06-04T15:56:21.693Z,101095.77
2018-06-04T15:59:26.289Z,101102.13
2018-06-04T16:02:30.902Z,101103.24
2018-06-04T16:05:35.502Z,101094.95
2018-06-04T16:08:40.333Z,101091.63
2018-06-04T16:11:45.467Z,101095.78
2018-06-04T16:14:50.073Z,101098.25
2018-06-04T16:17:54.517Z,101092.75
2018-06-04T16:20:58.957Z,101102.95
2018-06-04T16:24:03.490Z,101097.72
2018-06-04T16:27:08.052Z,101089.73
2018-06-04T16:30:12.741Z,101096.05
2018-06-04T16:33:17.286Z,101091.92
2018-06-04T16:36:22.430Z,101092.77
2018-06-04T16:39:26.982Z,101083.38
2018-06-04T16:42:34.846Z,101088.06
2018-06-04T16:45:39.314Z,101088.35
2018-06-04T16:48:51.408Z,101087.50
2018-06-04T16:51:57.759Z,101082.00
2018-06-04T16:55:02.251Z,101075.09
2018-06-04T16:58:07.026Z,101073.16
2018-06-04T17:01:11.465Z,101063.81
2018-06-04T17:04:15.853Z,101058.02
2018-06-04T17:07:20.237Z,101062.98
2018-06-04T17:10:24.621Z,101061.86
2018-06-04T17:13:28.760Z,101065.47
2018-06-04T17:16:33.152Z,101072.34
2018-06-04T17:19:37.537Z,101065.45
2018-06-04T17:22:41.921Z,101067.39
2018-06-04T17:25:46.318Z,101062.67
2018-06-04T17:28:50.730Z,101054.93
2018-06-04T17:31:55.112Z,101055.52
2018-06-04T17:34:59.489Z,101051.38
2018-06-04T17:38:03.872Z,101046.13
2018-06-04T17:41:08.304Z,101056.31
2018-06-04T17:44:12.729Z,101051.34
2018-06-04T17:47:17.132Z,101053.83
2018-06-04T17:50:21.532Z,101057.67
2018-06-04T17:53:25.922Z,101054.66
2018-06-04T17:56:30.350Z,101051.05
2018-06-04T17:59:34.753Z,101051.31
2018-06-04T18:02:39.209Z,101049.38
2018-06-04T18:05:43.618Z,101057.92
2018-06-04T18:08:47.992Z,101049.12
2018-06-04T18:11:52.413Z,101052.71
2018-06-04T18:14:56.839Z,101049.38
2018-06-04T18:18:01.338Z,101045.80
2018-06-04T18:21:05.702Z,101059.28
2018-06-04T18:24:10.221Z,101052.11
2018-06-04T18:27:14.641Z,101048.25
2018-06-04T18:30:19.053Z,101047.39
2018-06-04T18:33:23.461Z,101040.22
2018-06-04T18:36:27.864Z,101044.57
2018-06-04T18:39:32.385Z,101041.26
2018-06-04T18:42:36.792Z,101040.91
2018-06-04T18:45:41.204Z,101045.27
2018-06-04T18:48:45.609Z,101043.02
2018-06-04T18:51:50.053Z,101052.88
2018-06-04T18:54:54.446Z,101056.70
2018-06-04T18:57:58.860Z,101060.25
2018-06-04T19:01:03.267Z,101057.16
2018-06-04T19:04:07.674Z,101059.29
2018-06-04T19:07:12.398Z,101067.70
2018-06-04T19:10:16.805Z,101064.59
2018-06-04T19:13:21.218Z,101059.31
2018-06-04T19:16:25.591Z,101072.16
2018-06-04T19:19:29.981Z,101074.02
2018-06-04T19:22:34.376Z,101072.90
2018-06-04T19:25:38.802Z,101076.64
2018-06-04T19:28:43.225Z,101083.17
2018-06-04T19:31:47.623Z,101077.34
2018-06-04T19:34:52.041Z,101078.59
2018-06-04T19:37:56.463Z,101085.13
2018-06-04T19:41:00.860Z,101091.33
2018-06-04T19:44:06.210Z,101087.41
2018-06-04T19:47:10.647Z,101089.27
2018-06-04T19:50:15.098Z,101097.44
2018-06-04T19:53:19.487Z,101090.23
2018-06-04T19:56:23.877Z,101093.75
2018-06-04T19:59:28.281Z,101083.47
2018-06-04T20:02:32.712Z,101091.06
2018-06-04T20:05:37.085Z,101086.09
2018-06-04T20:08:41.828Z,101077.78
2018-06-04T20:11:46.224Z,101080.17
2018-06-04T20:14:50.652Z,101075.71
2018-06-04T20:17:55.033Z,101085.56
2018-06-04T20:20:59.488Z,101082.44
2018-06-04T20:24:03.928Z,101082.92
2018-06-04T20:27:08.323Z,101090.25
2018-06-04T20:30:12.694Z,101085.50
2018-06-04T20:33:17.077Z,101086.77
2018-06-04T20:36:21.468Z,101086.73
2018-06-04T20:39:25.846Z,101085.56
2018-06-04T20:42:30.337Z,101090.38
2018-06-04T20:45:34.700Z,101088.85
2018-06-04T20:48:38.811Z,101087.20
2018-06-04T20:51:43.194Z,101084.13
2018-06-04T20:54:47.599Z,101090.11
2018-06-04T20:57:51.986Z,101085.34
2018-06-04T21:00:56.407Z,101077.37
2018-06-04T21:04:00.817Z,101083.73
2018-06-04T21:07:05.189Z,101089.89
2018-06-04T21:10:09.573Z,101088.52
2018-06-04T21:13:13.972Z,101097.30
2018-06-04T21:16:18.407Z,101093.12
2018-06-04T21:19:22.866Z,101096.12
2018-06-04T21:22:26.987Z,101086.50
2018-06-04T21:25:31.345Z,101089.70
2018-06-04T21:28:35.753Z,101086.38
2018-06-04T21:31:40.143Z,101087.71
2018-06-04T21:34:44.520Z,101092.84
2018-06-04T21:37:48.985Z,101085.13
2018-06-04T21:40:53.365Z,101083.94
2018-06-04T21:43:57.750Z,101087.14
2018-06-04T21:47:02.171Z,101095.60
2018-06-04T21:50:06.734Z,101099.36
2018-06-04T21:53:11.106Z,101103.53
2018-06-04T21:56:15.514Z,101098.77
2018-06-04T21:59:19.880Z,101097.02
2018-06-04T22:02:24.250Z,101107.44
2018-06-04T22:05:28.797Z,101113.93
2018-06-04T22:08:33.198Z,101114.14
2018-06-04T22:11:37.592Z,101108.84
2018-06-04T22:14:42.099Z,101103.86
2018-06-04T22:17:46.489Z,101108.52
2018-06-04T22:20:50.904Z,101108.70
2018-06-04T22:23:55.311Z,101113.64
2018-06-04T22:26:59.708Z,101115.30
2018-06-04T22:30:04.149Z,101118.91
2018-06-04T22:33:08.630Z,101127.19
2018-06-04T22:36:13.012Z,101119.50
2018-06-04T22:39:17.496Z,101123.02
2018-06-04T22:42:21.884Z,101120.23
2018-06-04T22:45:26.280Z,101121.25
2018-06-04T22:48:30.663Z,101122.02
2018-06-04T22:51:35.965Z,101121.98
2018-06-04T22:54:40.355Z,101121.74
2018-06-04T22:57:44.733Z,101122.19
2018-06-04T23:00:49.127Z,101121.31
2018-06-04T23:03:53.512Z,101124.86
2018-06-04T23:06:57.893Z,101128.64
2018-06-04T23:10:02.278Z,101131.06
2018-06-04T23:13:06.704Z,101128.28
2018-06-04T23:16:11.107Z,101126.03
2018-06-04T23:19:15.505Z,101132.88
2018-06-04T23:22:19.913Z,101130.27
2018-06-04T23:25:24.314Z,101132.72
2018-06-04T23:28:28.701Z,101135.20
2018-06-04T23:31:33.103Z,101140.08
2018-06-04T23:34:37.484Z,101131.83
2018-06-04T23:37:41.894Z,101129.38
2018-06-04T23:40:46.261Z,101129.55
2018-06-04T23:43:50.645Z,101134.45
2018-06-04T23:46:55.029Z,101133.81
2018-06-04T23:49:59.426Z,101131.80
2018-06-04T23:53:03.802Z,101137.95
2018-06-04T23:56:08.190Z,101137.63
2018-06-04T23:59:12.554Z,101134.45
